createdAt,value
2022-09-02T00:00:05.304Z,13.85
2022-09-02T00:01:05.310Z,13.88
2022-09-02T00:02:05.511Z,13.82
2022-09-02T00:03:05.435Z,13.96
2022-09-02T00:04:05.318Z,13.87
2022-09-02T00:05:05.248Z,13.87
2022-09-02T00:06:05.235Z,13.81
2022-09-02T00:07:05.225Z,13.85
2022-09-02T00:08:05.250Z,13.82
2022-09-02T00:09:05.227Z,13.87
2022-09-02T00:10:05.260Z,13.91
2022-09-02T00:11:05.181Z,13.85
2022-09-02T00:12:05.240Z,13.77
2022-09-02T00:13:05.157Z,13.82
2022-09-02T00:14:05.173Z,13.82
2022-09-02T00:15:05.164Z,13.84
2022-09-02T00:16:05.219Z,13.79
2022-09-02T00:17:05.112Z,13.71
2022-09-02T00:18:05.101Z,13.82
2022-09-02T00:19:05.108Z,13.71
2022-09-02T00:20:05.131Z,13.69
2022-09-02T00:21:05.066Z,13.70
2022-09-02T00:22:05.055Z,13.71
2022-09-02T00:23:05.066Z,13.73
2022-09-02T00:24:05.061Z,13.71
2022-09-02T00:25:05.133Z,13.64
2022-09-02T00:26:05.039Z,13.71
2022-09-02T00:27:04.999Z,13.63
2022-09-02T00:28:04.988Z,13.62
2022-09-02T00:29:05.086Z,13.63
2022-09-02T00:30:04.966Z,13.66
2022-09-02T00:31:04.967Z,13.67
2022-09-02T00:32:05.052Z,13.63
2022-09-02T00:33:04.930Z,13.63
2022-09-02T00:34:04.919Z,13.62
2022-09-02T00:35:04.960Z,13.64
2022-09-02T00:36:04.933Z,13.59
2022-09-02T00:37:04.901Z,13.60
2022-09-02T00:38:04.873Z,13.60
2022-09-02T00:39:04.865Z,13.62
2022-09-02T00:40:04.896Z,13.67
2022-09-02T00:41:04.903Z,13.63
2022-09-02T00:42:04.867Z,13.64
2022-09-02T00:43:04.840Z,13.63
2022-09-02T00:44:04.806Z,13.55
2022-09-02T00:45:04.819Z,13.54
2022-09-02T00:46:04.854Z,13.49
2022-09-02T00:47:04.832Z,13.38
2022-09-02T00:48:04.773Z,13.36
2022-09-02T00:49:04.782Z,13.20
2022-09-02T00:50:04.739Z,13.19
2022-09-02T00:51:04.760Z,13.11
2022-09-02T00:52:04.735Z,13.17
2022-09-02T00:53:04.715Z,13.05
2022-09-02T00:54:04.765Z,13.12
2022-09-02T00:55:04.685Z,13.10
2022-09-02T00:56:04.694Z,13.08
2022-09-02T00:57:04.669Z,13.07
2022-09-02T00:58:04.679Z,13.03
2022-09-02T00:59:04.654Z,12.97
2022-09-02T01:00:04.688Z,12.95
2022-09-02T01:01:04.820Z,12.93
2022-09-02T01:02:04.676Z,12.89
2022-09-02T01:03:04.605Z,12.79
2022-09-02T01:04:04.586Z,12.82
2022-09-02T01:05:04.587Z,12.86
2022-09-02T01:06:04.638Z,12.78
2022-09-02T01:07:04.549Z,12.68
2022-09-02T01:08:04.568Z,12.71
2022-09-02T01:09:04.544Z,12.59
2022-09-02T01:10:04.524Z,12.67
2022-09-02T01:11:06.346Z,12.56
2022-09-02T01:12:04.526Z,12.52
2022-09-02T01:13:04.587Z,12.62
2022-09-02T01:14:04.473Z,12.47
2022-09-02T01:15:04.459Z,12.49
2022-09-02T01:16:04.499Z,12.42
2022-09-02T01:17:04.459Z,12.45
2022-09-02T01:18:04.425Z,12.35
2022-09-02T01:19:04.538Z,12.42
2022-09-02T01:20:04.412Z,12.39
2022-09-02T01:21:04.396Z,12.31
2022-09-02T01:22:04.392Z,12.37
2022-09-02T01:23:04.371Z,12.35
2022-09-02T01:24:12.647Z,12.37
2022-09-02T01:25:04.349Z,12.41
2022-09-02T01:26:04.334Z,12.29
2022-09-02T01:27:04.337Z,12.37
2022-09-02T01:28:04.345Z,12.32
2022-09-02T01:29:04.316Z,12.28
2022-09-02T01:30:04.652Z,12.29
2022-09-02T01:31:04.312Z,12.24
2022-09-02T01:32:04.303Z,12.20
2022-09-02T01:33:04.281Z,12.19
2022-09-02T01:34:04.278Z,12.10
2022-09-02T01:35:04.241Z,12.12
2022-09-02T01:36:04.247Z,12.16
2022-09-02T01:37:04.215Z,12.14
2022-09-02T01:38:04.208Z,12.12
2022-09-02T01:39:04.205Z,12.19
2022-09-02T01:40:04.258Z,12.16
2022-09-02T01:41:04.186Z,12.19
2022-09-02T01:42:04.195Z,12.23
2022-09-02T01:43:04.147Z,12.21
2022-09-02T01:44:04.150Z,12.20
2022-09-02T01:45:04.132Z,12.20
2022-09-02T01:46:04.142Z,12.27
2022-09-02T01:47:04.168Z,12.29
2022-09-02T01:48:04.215Z,12.27
2022-09-02T01:49:04.081Z,12.24
2022-09-02T01:50:04.087Z,12.20
2022-09-02T01:51:04.060Z,12.17
2022-09-02T01:52:04.052Z,12.19
2022-09-02T01:53:04.045Z,12.20
2022-09-02T01:54:04.065Z,12.17
2022-09-02T01:55:04.022Z,12.17
2022-09-02T01:56:04.028Z,12.28
2022-09-02T01:57:04.011Z,12.20
2022-09-02T01:58:03.995Z,12.23
2022-09-02T01:59:03.970Z,12.23
2022-09-02T02:00:04.007Z,12.21
2022-09-02T02:01:04.000Z,12.19
2022-09-02T02:02:03.995Z,12.23
2022-09-02T02:03:03.926Z,12.16
2022-09-02T02:04:03.918Z,12.14
2022-09-02T02:05:03.908Z,12.12
2022-09-02T02:06:03.940Z,12.14
2022-09-02T02:07:03.900Z,12.17
2022-09-02T02:08:03.872Z,12.16
2022-09-02T02:09:03.867Z,12.13
2022-09-02T02:10:03.855Z,12.07
2022-09-02T02:11:03.881Z,12.04
2022-09-02T02:12:03.851Z,12.01
2022-09-02T02:13:03.838Z,12.10
2022-09-02T02:14:03.840Z,12.09
2022-09-02T02:15:03.793Z,12.09
2022-09-02T02:16:03.901Z,11.96
2022-09-02T02:17:03.769Z,12.10
2022-09-02T02:18:03.769Z,12.01
2022-09-02T02:19:03.766Z,12.14
2022-09-02T02:20:03.745Z,12.02
2022-09-02T02:21:03.741Z,12.07
2022-09-02T02:22:03.719Z,12.04
2022-09-02T02:23:03.705Z,12.02
2022-09-02T02:24:03.710Z,12.01
2022-09-02T02:25:03.681Z,11.96
2022-09-02T02:26:03.698Z,11.94
2022-09-02T02:27:03.662Z,11.90
2022-09-02T02:28:03.658Z,11.86
2022-09-02T02:29:03.690Z,11.86
2022-09-02T02:30:03.649Z,11.88
2022-09-02T02:31:03.668Z,11.88
2022-09-02T02:32:03.619Z,11.88
2022-09-02T02:33:03.606Z,11.72
2022-09-02T02:34:03.598Z,11.79
2022-09-02T02:35:03.604Z,11.72
2022-09-02T02:36:03.583Z,11.82
2022-09-02T02:37:03.550Z,11.85
2022-09-02T02:38:03.869Z,11.86
2022-09-02T02:39:03.529Z,11.85
2022-09-02T02:40:03.578Z,11.83
2022-09-02T02:41:03.518Z,11.80
2022-09-02T02:42:03.515Z,11.91
2022-09-02T02:43:03.489Z,11.86
2022-09-02T02:44:03.484Z,11.80
2022-09-02T02:45:03.470Z,11.90
2022-09-02T02:46:03.497Z,11.95
2022-09-02T02:47:03.447Z,11.95
2022-09-02T02:48:03.431Z,11.91
2022-09-02T02:49:03.442Z,11.83
2022-09-02T02:50:03.409Z,11.78
2022-09-02T02:51:03.392Z,11.90
2022-09-02T02:52:03.418Z,11.79
2022-09-02T02:53:03.391Z,11.75
2022-09-02T02:54:03.367Z,11.65
2022-09-02T02:55:03.369Z,11.75
2022-09-02T02:56:03.355Z,11.72
2022-09-02T02:57:03.362Z,11.78
2022-09-02T02:58:03.334Z,11.69
2022-09-02T02:59:03.312Z,11.73
2022-09-02T03:00:03.298Z,11.64
2022-09-02T03:01:03.310Z,11.78
2022-09-02T03:02:03.365Z,11.65
2022-09-02T03:03:03.322Z,11.73
2022-09-02T03:04:03.271Z,11.64
2022-09-02T03:05:03.237Z,11.67
2022-09-02T03:06:03.235Z,11.61
2022-09-02T03:07:03.250Z,11.64
2022-09-02T03:08:03.250Z,11.57
2022-09-02T03:09:03.206Z,11.62
2022-09-02T03:10:03.197Z,11.58
2022-09-02T03:11:03.177Z,11.57
2022-09-02T03:12:03.175Z,11.65
2022-09-02T03:13:03.181Z,11.55
2022-09-02T03:14:03.172Z,11.60
2022-09-02T03:15:03.202Z,11.58
2022-09-02T03:16:03.181Z,11.55
2022-09-02T03:17:03.107Z,11.64
2022-09-02T03:18:03.101Z,11.61
2022-09-02T03:19:03.109Z,11.60
2022-09-02T03:20:03.080Z,11.67
2022-09-02T03:21:03.084Z,11.65
2022-09-02T03:22:03.090Z,11.64
2022-09-02T03:23:03.045Z,11.75
2022-09-02T03:24:03.042Z,11.67
2022-09-02T03:25:03.040Z,11.75
2022-09-02T03:26:03.020Z,11.78
2022-09-02T03:27:03.004Z,11.62
2022-09-02T03:28:02.984Z,11.72
2022-09-02T03:29:02.983Z,11.69
2022-09-02T03:30:02.977Z,11.70
2022-09-02T03:31:03.059Z,11.72
2022-09-02T03:32:03.111Z,11.64
2022-09-02T03:33:04.237Z,11.67
2022-09-02T03:34:02.918Z,11.70
2022-09-02T03:35:02.909Z,11.69
2022-09-02T03:36:02.929Z,11.73
2022-09-02T03:37:02.890Z,11.75
2022-09-02T03:38:02.889Z,11.73
2022-09-02T03:39:02.860Z,11.69
2022-09-02T03:40:02.893Z,11.69
2022-09-02T03:41:02.853Z,11.58
2022-09-02T03:42:02.860Z,11.62
2022-09-02T03:43:02.823Z,11.62
2022-09-02T03:44:02.835Z,11.65
2022-09-02T03:45:02.795Z,11.55
2022-09-02T03:46:02.990Z,11.67
2022-09-02T03:47:02.802Z,11.60
2022-09-02T03:48:02.778Z,11.64
2022-09-02T03:49:02.764Z,11.49
2022-09-02T03:50:02.758Z,11.57
2022-09-02T03:51:02.727Z,11.49
2022-09-02T03:52:02.733Z,11.52
2022-09-02T03:53:02.718Z,11.58
2022-09-02T03:54:02.744Z,11.62
2022-09-02T03:55:02.699Z,11.60
2022-09-02T03:56:02.711Z,11.61
2022-09-02T03:57:02.662Z,11.69
2022-09-02T03:58:07.891Z,11.73
2022-09-02T03:59:03.671Z,11.76
2022-09-02T04:00:02.633Z,11.70
2022-09-02T04:01:02.644Z,11.79
2022-09-02T04:02:02.768Z,11.72
2022-09-02T04:03:02.653Z,11.73
2022-09-02T04:04:02.586Z,11.73
2022-09-02T04:05:02.595Z,11.72
2022-09-02T04:06:02.597Z,11.67
2022-09-02T04:07:02.568Z,11.60
2022-09-02T04:08:02.540Z,11.73
2022-09-02T04:09:02.548Z,11.67
2022-09-02T04:10:02.520Z,11.62
2022-09-02T04:11:02.505Z,11.69
2022-09-02T04:12:02.509Z,11.73
2022-09-02T04:13:02.509Z,11.73
2022-09-02T04:14:02.506Z,11.76
2022-09-02T04:15:02.479Z,11.73
2022-09-02T04:16:02.535Z,11.70
2022-09-02T04:17:02.445Z,11.70
2022-09-02T04:18:02.451Z,11.64
2022-09-02T04:19:02.930Z,11.78
2022-09-02T04:20:02.410Z,11.75
2022-09-02T04:21:02.417Z,11.75
2022-09-02T04:22:02.415Z,11.73
2022-09-02T04:23:02.383Z,11.69
2022-09-02T04:24:02.385Z,11.73
2022-09-02T04:25:02.351Z,11.65
2022-09-02T04:26:02.357Z,11.72
2022-09-02T04:27:04.431Z,11.75
2022-09-02T04:28:02.338Z,11.69
2022-09-02T04:29:02.340Z,11.55
2022-09-02T04:30:02.314Z,11.62
2022-09-02T04:31:02.328Z,11.64
2022-09-02T04:32:02.287Z,11.61
2022-09-02T04:33:02.294Z,11.78
2022-09-02T04:34:02.254Z,11.60
2022-09-02T04:35:02.263Z,11.58
2022-09-02T04:36:02.231Z,11.57
2022-09-02T04:37:02.261Z,11.58
2022-09-02T04:38:02.228Z,11.58
2022-09-02T04:39:02.197Z,11.64
2022-09-02T04:40:02.192Z,11.69
2022-09-02T04:41:02.186Z,11.62
2022-09-02T04:42:02.168Z,11.73
2022-09-02T04:43:02.175Z,11.73
2022-09-02T04:44:02.170Z,11.58
2022-09-02T04:45:02.130Z,11.55
2022-09-02T04:46:02.177Z,11.62
2022-09-02T04:47:02.125Z,11.65
2022-09-02T04:48:02.099Z,11.62
2022-09-02T04:49:02.103Z,11.64
2022-09-02T04:50:02.103Z,11.64
2022-09-02T04:51:02.064Z,11.70
2022-09-02T04:52:02.073Z,11.75
2022-09-02T04:53:02.041Z,11.70
2022-09-02T04:54:02.034Z,11.57
2022-09-02T04:55:02.045Z,11.72
2022-09-02T04:56:02.024Z,11.62
2022-09-02T04:57:02.003Z,11.65
2022-09-02T04:58:02.015Z,11.73
2022-09-02T04:59:02.016Z,11.70
2022-09-02T05:00:01.966Z,11.75
2022-09-02T05:01:02.029Z,11.67
2022-09-02T05:02:02.144Z,11.75
2022-09-02T05:03:01.942Z,11.73
2022-09-02T05:04:01.938Z,11.73
2022-09-02T05:05:01.946Z,11.62
2022-09-02T05:06:01.907Z,11.73
2022-09-02T05:07:01.923Z,11.72
2022-09-02T05:08:01.880Z,11.75
2022-09-02T05:09:01.881Z,11.73
2022-09-02T05:10:01.877Z,11.78
2022-09-02T05:11:01.844Z,11.73
2022-09-02T05:12:01.843Z,11.70
2022-09-02T05:13:01.852Z,11.83
2022-09-02T05:14:01.823Z,11.80
2022-09-02T05:15:01.812Z,11.80
2022-09-02T05:16:01.930Z,11.83
2022-09-02T05:17:09.764Z,11.85
2022-09-02T05:18:01.781Z,11.95
2022-09-02T05:19:01.788Z,11.96
2022-09-02T05:20:01.753Z,11.98
2022-09-02T05:21:01.757Z,12.05
2022-09-02T05:22:01.725Z,11.98
2022-09-02T05:23:02.189Z,12.04
2022-09-02T05:24:01.717Z,12.04
2022-09-02T05:25:01.685Z,12.02
2022-09-02T05:26:01.735Z,12.04
2022-09-02T05:27:01.687Z,12.13
2022-09-02T05:28:01.655Z,12.10
2022-09-02T05:29:01.644Z,12.20
2022-09-02T05:30:01.641Z,12.23
2022-09-02T05:31:01.670Z,12.29
2022-09-02T05:32:01.630Z,12.24
2022-09-02T05:33:01.623Z,12.32
2022-09-02T05:34:01.589Z,12.28
2022-09-02T05:35:01.574Z,12.32
2022-09-02T05:36:01.589Z,12.29
2022-09-02T05:37:01.566Z,12.27
2022-09-02T05:38:01.563Z,12.28
2022-09-02T05:39:01.529Z,12.28
2022-09-02T05:40:01.562Z,12.31
2022-09-02T05:41:01.532Z,12.34
2022-09-02T05:42:01.548Z,12.49
2022-09-02T05:43:01.500Z,12.42
2022-09-02T05:44:03.708Z,12.42
2022-09-02T05:45:01.466Z,12.41
2022-09-02T05:46:01.514Z,12.47
2022-09-02T05:47:01.449Z,12.49
2022-09-02T05:48:01.462Z,12.53
2022-09-02T05:49:01.429Z,12.50
2022-09-02T05:50:01.406Z,12.62
2022-09-02T05:51:01.398Z,12.70
2022-09-02T05:52:01.405Z,12.65
2022-09-02T05:53:01.412Z,12.70
2022-09-02T05:54:01.375Z,12.65
2022-09-02T05:55:01.375Z,12.71
2022-09-02T05:56:01.340Z,12.82
2022-09-02T05:57:01.331Z,12.79
2022-09-02T05:58:01.330Z,12.83
2022-09-02T05:59:01.704Z,12.90
2022-09-02T06:00:01.309Z,12.92
2022-09-02T06:01:01.315Z,13.00
2022-09-02T06:02:01.312Z,12.96
2022-09-02T06:03:01.334Z,13.04
2022-09-02T06:04:01.288Z,13.11
2022-09-02T06:05:01.242Z,13.14
2022-09-02T06:06:06.470Z,13.10
2022-09-02T06:07:02.219Z,13.15
2022-09-02T06:08:01.210Z,13.04
2022-09-02T06:09:01.229Z,13.08
2022-09-02T06:10:01.201Z,13.19
2022-09-02T06:11:01.181Z,13.11
2022-09-02T06:12:01.184Z,13.19
2022-09-02T06:13:01.153Z,13.25
2022-09-02T06:14:01.142Z,13.23
2022-09-02T06:15:01.172Z,13.29
2022-09-02T06:16:01.154Z,13.28
2022-09-02T06:17:01.121Z,13.32
2022-09-02T06:18:01.217Z,13.42
2022-09-02T06:19:01.121Z,13.45
2022-09-02T06:20:01.080Z,13.49
2022-09-02T06:21:01.089Z,13.49
2022-09-02T06:22:01.057Z,13.54
2022-09-02T06:23:01.047Z,13.51
2022-09-02T06:24:01.068Z,13.52
2022-09-02T06:25:01.018Z,13.51
2022-09-02T06:26:01.019Z,13.64
2022-09-02T06:27:01.029Z,13.64
2022-09-02T06:28:06.447Z,13.69
2022-09-02T06:29:02.009Z,13.73
2022-09-02T06:30:00.963Z,13.79
2022-09-02T06:31:00.992Z,13.85
2022-09-02T06:32:00.944Z,13.78
2022-09-02T06:33:00.963Z,13.87
2022-09-02T06:34:00.935Z,13.88
2022-09-02T06:35:00.925Z,13.89
2022-09-02T06:36:00.893Z,13.91
2022-09-02T06:37:00.890Z,14.00
2022-09-02T06:38:00.896Z,14.02
2022-09-02T06:39:00.914Z,14.10
2022-09-02T06:40:00.874Z,14.09
2022-09-02T06:41:00.838Z,14.17
2022-09-02T06:42:00.826Z,14.18
2022-09-02T06:43:00.828Z,14.10
2022-09-02T06:44:00.833Z,14.22
2022-09-02T06:45:00.803Z,14.27
2022-09-02T06:46:00.860Z,14.28
2022-09-02T06:47:00.777Z,14.29
2022-09-02T06:48:00.772Z,14.33
2022-09-02T06:49:00.765Z,14.35
2022-09-02T06:50:00.735Z,14.33
2022-09-02T06:51:00.744Z,14.33
2022-09-02T06:52:00.712Z,14.46
2022-09-02T06:53:00.726Z,14.43
2022-09-02T06:54:00.840Z,14.43
2022-09-02T06:55:00.697Z,14.43
2022-09-02T06:56:00.711Z,14.51
2022-09-02T06:57:00.672Z,14.54
2022-09-02T06:58:00.644Z,14.54
2022-09-02T06:59:00.636Z,14.55
2022-09-02T07:00:02.534Z,14.61
2022-09-02T07:01:00.643Z,14.60
2022-09-02T07:02:00.829Z,14.69
2022-09-02T07:03:00.621Z,14.73
2022-09-02T07:04:00.585Z,14.78
2022-09-02T07:05:00.568Z,14.89
2022-09-02T07:06:00.563Z,14.91
2022-09-02T07:07:00.545Z,14.96
2022-09-02T07:08:00.545Z,15.10
2022-09-02T07:09:00.574Z,15.03
2022-09-02T07:10:00.507Z,15.16
2022-09-02T07:11:00.501Z,15.23
2022-09-02T07:12:04.249Z,15.28
2022-09-02T07:13:00.519Z,15.36
2022-09-02T07:14:00.482Z,15.54
2022-09-02T07:15:00.458Z,15.64
2022-09-02T07:16:00.440Z,15.62
2022-09-02T07:17:00.564Z,15.89
2022-09-02T07:18:00.418Z,16.05
2022-09-02T07:19:00.464Z,16.21
2022-09-02T07:20:00.447Z,16.30
2022-09-02T07:21:00.389Z,16.50
2022-09-02T07:22:00.404Z,16.63
2022-09-02T07:23:00.374Z,16.94
2022-09-02T07:24:00.356Z,16.86
2022-09-02T07:25:00.356Z,17.07
2022-09-02T07:26:00.326Z,17.04
2022-09-02T07:27:00.337Z,17.16
2022-09-02T07:28:00.347Z,17.33
2022-09-02T07:29:00.327Z,17.37
2022-09-02T07:30:00.296Z,17.34
2022-09-02T07:31:00.384Z,17.40
2022-09-02T07:32:00.262Z,17.48
2022-09-02T07:33:00.268Z,17.58
2022-09-02T07:34:00.733Z,17.71
2022-09-02T07:35:00.262Z,17.78
2022-09-02T07:36:00.223Z,17.72
2022-09-02T07:37:04.126Z,17.79
2022-09-02T07:38:01.198Z,17.81
2022-09-02T07:39:00.189Z,17.66
2022-09-02T07:40:00.200Z,17.58
2022-09-02T07:41:00.192Z,17.40
2022-09-02T07:42:00.525Z,17.19
2022-09-02T07:43:00.218Z,17.14
2022-09-02T07:44:00.164Z,16.97
2022-09-02T07:45:00.124Z,16.81
2022-09-02T07:46:00.164Z,16.63
2022-09-02T07:47:00.126Z,16.52
2022-09-02T07:48:00.116Z,16.45
2022-09-02T07:49:00.077Z,16.39
2022-09-02T07:50:18.975Z,16.41
2022-09-02T07:51:01.061Z,16.31
2022-09-02T07:52:00.050Z,16.23
2022-09-02T07:53:00.045Z,16.33
2022-09-02T07:54:00.016Z,16.33
2022-09-02T07:55:00.063Z,16.28
2022-09-02T07:56:00.031Z,16.28
2022-09-02T07:57:00.002Z,16.28
2022-09-02T07:58:00.012Z,16.34
2022-09-02T07:58:59.973Z,16.25
2022-09-02T07:59:59.979Z,16.28
2022-09-02T08:01:00.002Z,16.34
2022-09-02T08:02:00.007Z,16.39
2022-09-02T08:03:00.112Z,16.45
2022-09-02T08:04:02.708Z,16.45
2022-09-02T08:05:00.893Z,16.41
2022-09-02T08:05:59.892Z,16.58
2022-09-02T08:06:59.872Z,16.61
2022-09-02T08:07:59.879Z,16.63
2022-09-02T08:08:59.889Z,16.58
2022-09-02T08:09:59.882Z,16.66
2022-09-02T08:10:59.887Z,16.61
2022-09-02T08:11:59.815Z,16.61
2022-09-02T08:12:59.825Z,16.64
2022-09-02T08:13:59.812Z,16.64
2022-09-02T08:14:59.791Z,16.67
2022-09-02T08:15:59.786Z,16.68
2022-09-02T08:16:59.850Z,16.64
2022-09-02T08:17:59.746Z,16.64
2022-09-02T08:18:59.746Z,16.73
2022-09-02T08:19:59.735Z,16.81
2022-09-02T08:20:59.729Z,16.79
2022-09-02T08:21:59.727Z,16.93
2022-09-02T08:23:11.126Z,16.97
2022-09-02T08:24:00.709Z,17.04
2022-09-02T08:24:59.692Z,17.03
2022-09-02T08:25:59.697Z,16.96
2022-09-02T08:26:59.658Z,17.06
2022-09-02T08:27:59.693Z,17.14
2022-09-02T08:28:59.634Z,17.00
2022-09-02T08:29:59.613Z,17.11
2022-09-02T08:30:59.714Z,17.19
2022-09-02T08:31:59.669Z,17.16
2022-09-02T08:32:59.598Z,17.16
2022-09-02T08:33:59.603Z,17.18
2022-09-02T08:34:59.613Z,17.18
2022-09-02T08:35:59.548Z,17.15
2022-09-02T08:36:59.548Z,17.19
2022-09-02T08:37:59.557Z,17.18
2022-09-02T08:38:59.557Z,17.22
2022-09-02T08:39:59.504Z,17.28
2022-09-02T08:40:59.495Z,17.30
2022-09-02T08:42:59.482Z,17.37
2022-09-02T08:43:59.526Z,17.38
2022-09-02T08:44:59.499Z,17.28
2022-09-02T08:45:59.486Z,17.44
2022-09-02T08:46:59.429Z,17.46
2022-09-02T08:47:59.431Z,17.48
2022-09-02T08:48:59.453Z,17.54
2022-09-02T08:49:59.437Z,17.55
2022-09-02T08:50:59.382Z,17.62
2022-09-02T08:52:01.184Z,17.55
2022-09-02T08:52:59.374Z,17.71
2022-09-02T08:53:59.376Z,17.72
2022-09-02T08:54:59.372Z,17.77
2022-09-02T08:55:59.451Z,17.70
2022-09-02T08:56:59.313Z,17.75
2022-09-02T08:57:59.332Z,17.78
2022-09-02T08:58:59.334Z,17.81
2022-09-02T08:59:59.286Z,17.87
2022-09-02T09:00:59.337Z,17.93
2022-09-02T09:02:00.965Z,17.93
2022-09-02T09:02:59.249Z,17.99
2022-09-02T09:03:59.267Z,17.99
2022-09-02T09:04:59.239Z,18.07
2022-09-02T09:05:59.239Z,18.00
2022-09-02T09:06:59.219Z,18.12
2022-09-02T09:07:59.192Z,18.10
2022-09-02T09:08:59.201Z,18.17
2022-09-02T09:09:59.207Z,18.20
2022-09-02T09:10:59.168Z,18.12
2022-09-02T09:11:59.174Z,18.12
2022-09-02T09:12:59.138Z,18.10
2022-09-02T09:13:59.166Z,18.14
2022-09-02T09:14:59.127Z,18.17
2022-09-02T09:15:59.211Z,18.12
2022-09-02T09:16:59.196Z,18.11
2022-09-02T09:17:59.090Z,18.12
2022-09-02T09:18:59.782Z,18.27
2022-09-02T09:19:59.103Z,18.32
2022-09-02T09:20:59.084Z,18.33
2022-09-02T09:21:59.071Z,18.27
2022-09-02T09:22:59.052Z,18.35
2022-09-02T09:23:59.060Z,18.41
2022-09-02T09:24:59.003Z,18.44
2022-09-02T09:25:58.990Z,18.54
2022-09-02T09:26:59.017Z,18.45
2022-09-02T09:27:58.984Z,18.48
2022-09-02T09:28:58.981Z,18.54
2022-09-02T09:29:58.946Z,18.47
2022-09-02T09:30:58.937Z,18.52
2022-09-02T09:31:59.051Z,18.51
2022-09-02T09:32:58.928Z,18.54
2022-09-02T09:33:58.925Z,18.50
2022-09-02T09:34:58.976Z,18.52
2022-09-02T09:35:58.888Z,18.62
2022-09-02T09:36:58.926Z,18.63
2022-09-02T09:37:58.856Z,18.69
2022-09-02T09:38:58.865Z,18.78
2022-09-02T09:39:58.864Z,18.75
2022-09-02T09:40:58.839Z,18.81
2022-09-02T09:41:58.879Z,18.75
2022-09-02T09:42:59.009Z,18.80
2022-09-02T09:43:58.799Z,18.85
2022-09-02T09:44:58.787Z,18.84
2022-09-02T09:45:58.910Z,18.80
2022-09-02T09:46:58.758Z,18.81
2022-09-02T09:47:58.750Z,18.81
2022-09-02T09:48:58.766Z,18.81
2022-09-02T09:49:58.745Z,18.91
2022-09-02T09:50:58.741Z,18.85
2022-09-02T09:51:58.735Z,18.91
2022-09-02T09:52:58.699Z,19.06
2022-09-02T09:53:58.679Z,18.88
2022-09-02T09:54:58.687Z,18.90
2022-09-02T09:55:58.681Z,18.92
2022-09-02T09:56:58.666Z,18.90
2022-09-02T09:57:58.664Z,18.98
2022-09-02T09:58:58.625Z,18.99
2022-09-02T09:59:58.628Z,19.00
2022-09-02T10:00:58.687Z,18.99
2022-09-02T10:01:58.705Z,18.95
2022-09-02T10:02:58.610Z,19.02
2022-09-02T10:03:58.573Z,18.98
2022-09-02T10:04:58.560Z,18.98
2022-09-02T10:05:58.569Z,19.04
2022-09-02T10:06:58.570Z,19.04
2022-09-02T10:07:58.643Z,19.16
2022-09-02T10:08:58.540Z,19.18
2022-09-02T10:09:58.501Z,19.22
2022-09-02T10:10:58.564Z,19.28
2022-09-02T10:11:58.481Z,19.37
2022-09-02T10:12:58.508Z,19.44
2022-09-02T10:13:58.507Z,19.46
2022-09-02T10:14:58.457Z,19.44
2022-09-02T10:15:58.464Z,19.47
2022-09-02T10:16:58.426Z,19.51
2022-09-02T10:17:58.426Z,19.51
2022-09-02T10:18:58.416Z,19.55
2022-09-02T10:19:58.803Z,19.50
2022-09-02T10:21:13.899Z,19.47
2022-09-02T10:21:59.384Z,19.48
2022-09-02T10:23:00.101Z,19.47
2022-09-02T10:23:58.377Z,19.50
2022-09-02T10:24:58.360Z,19.55
2022-09-02T10:25:58.389Z,19.58
2022-09-02T10:26:58.313Z,19.54
2022-09-02T10:27:58.323Z,19.59
2022-09-02T10:29:01.954Z,19.69
2022-09-02T10:29:59.312Z,19.56
2022-09-02T10:30:58.298Z,19.61
2022-09-02T10:31:58.343Z,19.58
2022-09-02T10:32:58.244Z,19.77
2022-09-02T10:33:58.235Z,19.68
2022-09-02T10:34:58.229Z,19.77
2022-09-02T10:35:58.242Z,19.71
2022-09-02T10:36:58.232Z,19.76
2022-09-02T10:37:58.223Z,19.87
2022-09-02T10:38:58.179Z,19.87
2022-09-02T10:39:58.168Z,19.91
2022-09-02T10:40:58.213Z,19.86
2022-09-02T10:41:58.170Z,19.80
2022-09-02T10:42:58.165Z,19.81
2022-09-02T10:43:58.168Z,19.76
2022-09-02T10:44:59.078Z,19.78
2022-09-02T10:45:58.103Z,19.56
2022-09-02T10:46:58.155Z,19.59
2022-09-02T10:47:58.108Z,19.62
2022-09-02T10:48:58.087Z,19.66
2022-09-02T10:49:58.059Z,19.76
2022-09-02T10:50:58.051Z,19.77
2022-09-02T10:51:58.044Z,19.69
2022-09-02T10:52:58.052Z,19.73
2022-09-02T10:53:58.042Z,19.74
2022-09-02T10:54:58.003Z,19.84
2022-09-02T10:55:57.990Z,19.86
2022-09-02T10:56:58.010Z,19.94
2022-09-02T10:57:58.001Z,19.84
2022-09-02T10:59:57.980Z,19.98
2022-09-02T11:00:58.034Z,19.96
2022-09-02T11:01:57.938Z,19.91
2022-09-02T11:02:57.913Z,19.86
2022-09-02T11:03:58.016Z,19.88
2022-09-02T11:04:57.915Z,19.94
2022-09-02T11:05:57.917Z,19.91
2022-09-02T11:07:05.057Z,19.88
2022-09-02T11:07:58.872Z,19.87
2022-09-02T11:08:57.855Z,19.92
2022-09-02T11:09:57.861Z,19.77
2022-09-02T11:10:57.940Z,19.78
2022-09-02T11:12:00.085Z,19.81
2022-09-02T11:12:57.798Z,19.80
2022-09-02T11:13:57.794Z,19.88
2022-09-02T11:14:57.793Z,19.84
2022-09-02T11:15:57.897Z,19.86
2022-09-02T11:16:57.783Z,19.86
2022-09-02T11:17:57.769Z,19.92
2022-09-02T11:18:57.732Z,19.95
2022-09-02T11:19:57.725Z,19.92
2022-09-02T11:20:57.712Z,19.95
2022-09-02T11:21:57.724Z,20.01
2022-09-02T11:22:57.728Z,20.03
2022-09-02T11:23:57.679Z,20.03
2022-09-02T11:24:57.690Z,20.06
2022-09-02T11:25:57.672Z,20.11
2022-09-02T11:26:57.658Z,20.21
2022-09-02T11:27:57.663Z,20.13
2022-09-02T11:28:57.669Z,20.13
2022-09-02T11:29:57.611Z,20.05
2022-09-02T11:30:57.634Z,20.14
2022-09-02T11:31:57.614Z,20.11
2022-09-02T11:32:57.598Z,20.06
2022-09-02T11:33:57.698Z,20.13
2022-09-02T11:34:57.555Z,20.18
2022-09-02T11:35:57.558Z,20.21
2022-09-02T11:36:57.537Z,20.24
2022-09-02T11:37:57.547Z,20.28
2022-09-02T11:38:58.472Z,20.35
2022-09-02T11:40:11.637Z,20.33
2022-09-02T11:41:58.544Z,20.33
2022-09-02T11:42:57.477Z,20.33
2022-09-02T11:43:57.469Z,20.32
2022-09-02T11:44:57.476Z,20.28
2022-09-02T11:45:57.518Z,20.24
2022-09-02T11:46:57.506Z,20.38
2022-09-02T11:47:57.410Z,20.39
2022-09-02T11:48:57.399Z,20.33
2022-09-02T11:49:57.401Z,20.39
2022-09-02T11:50:57.404Z,20.52
2022-09-02T11:51:57.410Z,20.50
2022-09-02T11:52:57.351Z,20.50
2022-09-02T11:53:57.384Z,20.52
2022-09-02T11:55:01.948Z,20.57
2022-09-02T11:55:58.325Z,20.41
2022-09-02T11:56:57.345Z,20.47
2022-09-02T11:57:57.313Z,20.52
2022-09-02T11:58:57.289Z,20.48
2022-09-02T11:59:57.308Z,20.59
2022-09-02T12:00:57.273Z,20.58
2022-09-02T12:01:57.269Z,20.57
2022-09-02T12:02:57.283Z,20.58
2022-09-02T12:05:01.311Z,20.72
2022-09-02T12:05:57.296Z,20.67
2022-09-02T12:06:57.292Z,20.69
2022-09-02T12:07:57.235Z,20.64
2022-09-02T12:08:57.248Z,20.64
2022-09-02T12:09:57.164Z,20.66
2022-09-02T12:10:57.164Z,20.64
2022-09-02T12:11:57.178Z,20.66
2022-09-02T12:12:57.153Z,20.67
2022-09-02T12:13:57.163Z,20.67
2022-09-02T12:14:57.108Z,20.73
2022-09-02T12:15:57.154Z,20.79
2022-09-02T12:16:57.156Z,20.79
2022-09-02T12:17:57.084Z,20.80
2022-09-02T12:18:57.091Z,20.85
2022-09-02T12:19:57.050Z,20.87
2022-09-02T12:20:57.069Z,20.97
2022-09-02T12:21:57.371Z,21.03
2022-09-02T12:22:57.036Z,20.98
2022-09-02T12:23:57.041Z,21.10
2022-09-02T12:24:57.057Z,21.13
2022-09-02T12:25:57.002Z,21.06
2022-09-02T12:26:56.973Z,20.97
2022-09-02T12:27:56.970Z,20.98
2022-09-02T12:28:56.979Z,20.95
2022-09-02T12:29:56.970Z,20.97
2022-09-02T12:30:56.981Z,20.95
2022-09-02T12:31:56.946Z,21.01
2022-09-02T12:32:56.907Z,20.99
2022-09-02T12:33:56.938Z,20.95
2022-09-02T12:34:56.918Z,21.03
2022-09-02T12:35:56.879Z,20.95
2022-09-02T12:36:56.861Z,21.07
2022-09-02T12:37:56.877Z,20.99
2022-09-02T12:38:56.873Z,21.12
2022-09-02T12:39:56.836Z,21.09
2022-09-02T12:40:56.958Z,21.14
2022-09-02T12:41:56.849Z,21.19
2022-09-02T12:42:56.796Z,21.24
2022-09-02T12:43:56.786Z,21.32
2022-09-02T12:44:56.796Z,21.38
2022-09-02T12:45:56.783Z,21.43
2022-09-02T12:46:56.829Z,21.47
2022-09-02T12:47:56.776Z,21.38
2022-09-02T12:48:56.741Z,21.43
2022-09-02T12:49:56.752Z,21.43
2022-09-02T12:50:56.726Z,21.38
2022-09-02T12:51:56.718Z,21.42
2022-09-02T12:52:56.722Z,21.37
2022-09-02T12:53:56.673Z,21.37
2022-09-02T12:54:56.686Z,21.37
2022-09-02T12:55:56.664Z,21.40